sensor_id;sensor_type;location;lat;lon;timestamp;pressure;altitude;pressure_sealevel;temperature;humidity
43711;BME280;29309;42.682;23.372;2023-02-04T00:00:50;95014.25;;;1.84;78.64
43711;BME280;29309;42.682;23.372;2023-02-04T00:03:17;95010.59;;;1.81;78.82
43711;BME280;29309;42.682;23.372;2023-02-04T00:05:42;95011.50;;;1.84;79.37
43711;BME280;29309;42.682;23.372;2023-02-04T00:08:08;95016.41;;;1.85;79.28
43711;BME280;29309;42.682;23.372;2023-02-04T00:10:34;95002.72;;;1.85;79.59
43711;BME280;29309;42.682;23.372;2023-02-04T00:13:00;94997.81;;;1.84;79.88
43711;BME280;29309;42.682;23.372;2023-02-04T00:15:25;94993.06;;;1.84;79.64
43711;BME280;29309;42.682;23.372;2023-02-04T00:17:51;94985.56;;;1.85;79.86
43711;BME280;29309;42.682;23.372;2023-02-04T00:20:17;94981.72;;;1.88;80.00
43711;BME280;29309;42.682;23.372;2023-02-04T00:22:44;94971.88;;;1.85;79.86
43711;BME280;29309;42.682;23.372;2023-02-04T00:25:09;94979.41;;;1.84;79.99
43711;BME280;29309;42.682;23.372;2023-02-04T00:27:35;94978.97;;;1.88;79.76
43711;BME280;29309;42.682;23.372;2023-02-04T00:30:00;94978.81;;;1.86;79.96
43711;BME280;29309;42.682;23.372;2023-02-04T00:32:26;94980.81;;;1.85;80.17
43711;BME280;29309;42.682;23.372;2023-02-04T00:34:51;94973.34;;;1.86;79.97
43711;BME280;29309;42.682;23.372;2023-02-04T00:37:18;94981.41;;;1.84;79.42
43711;BME280;29309;42.682;23.372;2023-02-04T00:39:43;94978.91;;;1.78;79.80
43711;BME280;29309;42.682;23.372;2023-02-04T00:42:08;94971.69;;;1.73;80.20
43711;BME280;29309;42.682;23.372;2023-02-04T00:44:34;94969.59;;;1.64;80.28
43711;BME280;29309;42.682;23.372;2023-02-04T00:47:00;94964.19;;;1.57;80.72
43711;BME280;29309;42.682;23.372;2023-02-04T00:49:26;94962.69;;;1.46;80.71
43711;BME280;29309;42.682;23.372;2023-02-04T00:51:51;94966.63;;;1.35;81.20
43711;BME280;29309;42.682;23.372;2023-02-04T00:54:17;94961.88;;;1.36;81.81
43711;BME280;29309;42.682;23.372;2023-02-04T00:56:43;94965.50;;;1.38;81.96
43711;BME280;29309;42.682;23.372;2023-02-04T00:59:09;94972.09;;;1.35;81.93
43711;BME280;29309;42.682;23.372;2023-02-04T01:01:34;94953.81;;;1.38;82.31
43711;BME280;29309;42.682;23.372;2023-02-04T01:04:00;94959.88;;;1.36;82.40
43711;BME280;29309;42.682;23.372;2023-02-04T01:06:25;94940.72;;;1.36;82.55
43711;BME280;29309;42.682;23.372;2023-02-04T01:08:51;94933.72;;;1.26;82.96
43711;BME280;29309;42.682;23.372;2023-02-04T01:11:17;94935.28;;;1.19;82.76
43711;BME280;29309;42.682;23.372;2023-02-04T01:13:43;94922.16;;;1.18;83.10
43711;BME280;29309;42.682;23.372;2023-02-04T01:16:08;94928.03;;;1.14;83.19
43711;BME280;29309;42.682;23.372;2023-02-04T01:18:34;94921.41;;;1.17;83.62
43711;BME280;29309;42.682;23.372;2023-02-04T01:21:00;94920.38;;;1.13;83.63
43711;BME280;29309;42.682;23.372;2023-02-04T01:23:25;94916.63;;;1.08;84.24
43711;BME280;29309;42.682;23.372;2023-02-04T01:25:50;94920.63;;;1.07;83.96
43711;BME280;29309;42.682;23.372;2023-02-04T01:28:16;94907.84;;;1.10;84.48
43711;BME280;29309;42.682;23.372;2023-02-04T01:30:41;94911.44;;;1.12;84.42
43711;BME280;29309;42.682;23.372;2023-02-04T01:33:07;94897.22;;;1.14;84.42
43711;BME280;29309;42.682;23.372;2023-02-04T01:35:32;94892.00;;;1.08;84.33
43711;BME280;29309;42.682;23.372;2023-02-04T01:37:58;94892.88;;;1.11;84.42
43711;BME280;29309;42.682;23.372;2023-02-04T01:40:23;94891.44;;;1.10;84.46
43711;BME280;29309;42.682;23.372;2023-02-04T01:42:49;94886.38;;;1.06;84.47
43711;BME280;29309;42.682;23.372;2023-02-04T01:45:14;94872.47;;;1.12;84.59
43711;BME280;29309;42.682;23.372;2023-02-04T01:47:40;94881.88;;;1.18;83.85
43711;BME280;29309;42.682;23.372;2023-02-04T01:50:08;94869.16;;;1.13;83.87
43711;BME280;29309;42.682;23.372;2023-02-04T01:52:36;94864.41;;;1.14;83.83
43711;BME280;29309;42.682;23.372;2023-02-04T01:55:11;94869.34;;;1.15;83.84
43711;BME280;29309;42.682;23.372;2023-02-04T01:57:37;94869.16;;;1.13;83.52
43711;BME280;29309;42.682;23.372;2023-02-04T02:00:05;94867.16;;;1.14;83.89
43711;BME280;29309;42.682;23.372;2023-02-04T02:02:41;94864.41;;;1.14;84.03
43711;BME280;29309;42.682;23.372;2023-02-04T02:05:09;94851.16;;;1.10;83.97
43711;BME280;29309;42.682;23.372;2023-02-04T02:07:35;94856.78;;;1.12;84.24
43711;BME280;29309;42.682;23.372;2023-02-04T02:10:03;94861.38;;;1.10;84.34
43711;BME280;29309;42.682;23.372;2023-02-04T02:12:29;94869.41;;;1.08;84.28
43711;BME280;29309;42.682;23.372;2023-02-04T02:14:55;94852.75;;;1.13;84.74
43711;BME280;29309;42.682;23.372;2023-02-04T02:17:21;94844.47;;;1.21;84.55
43711;BME280;29309;42.682;23.372;2023-02-04T02:19:46;94845.94;;;1.22;84.13
43711;BME280;29309;42.682;23.372;2023-02-04T02:22:21;94842.72;;;1.16;83.60
43711;BME280;29309;42.682;23.372;2023-02-04T02:24:49;94839.91;;;1.06;83.80
43711;BME280;29309;42.682;23.372;2023-02-04T02:27:14;94841.91;;;1.06;84.00
43711;BME280;29309;42.682;23.372;2023-02-04T02:29:41;94824.38;;;1.09;83.74
43711;BME280;29309;42.682;23.372;2023-02-04T02:32:08;94809.69;;;1.04;84.00
43711;BME280;29309;42.682;23.372;2023-02-04T02:34:36;94789.84;;;1.04;83.83
43711;BME280;29309;42.682;23.372;2023-02-04T02:37:04;94787.66;;;1.02;83.74
43711;BME280;29309;42.682;23.372;2023-02-04T02:39:31;94771.97;;;1.03;83.38
43711;BME280;29309;42.682;23.372;2023-02-04T02:41:57;94775.44;;;1.03;83.75
43711;BME280;29309;42.682;23.372;2023-02-04T02:44:24;94767.38;;;1.05;83.79
43711;BME280;29309;42.682;23.372;2023-02-04T02:46:51;94761.78;;;1.03;83.32
43711;BME280;29309;42.682;23.372;2023-02-04T02:49:18;94755.19;;;1.06;83.37
43711;BME280;29309;42.682;23.372;2023-02-04T02:51:45;94760.50;;;1.04;83.21
43711;BME280;29309;42.682;23.372;2023-02-04T02:54:32;94764.25;;;1.09;82.95
43711;BME280;29309;42.682;23.372;2023-02-04T02:59:42;94765.38;;;1.06;82.48
43711;BME280;29309;42.682;23.372;2023-02-04T03:02:10;94775.28;;;1.01;82.36
43711;BME280;29309;42.682;23.372;2023-02-04T03:04:40;94777.03;;;1.06;82.29
43711;BME280;29309;42.682;23.372;2023-02-04T03:07:07;94773.13;;;0.99;82.74
43711;BME280;29309;42.682;23.372;2023-02-04T03:09:33;94758.50;;;1.05;82.56
43711;BME280;29309;42.682;23.372;2023-02-04T03:12:00;94752.63;;;1.08;82.04
43711;BME280;29309;42.682;23.372;2023-02-04T03:14:26;94769.00;;;1.08;81.96
43711;BME280;29309;42.682;23.372;2023-02-04T03:16:53;94780.75;;;1.01;82.32
43711;BME280;29309;42.682;23.372;2023-02-04T03:19:21;94767.97;;;1.04;82.51
43711;BME280;29309;42.682;23.372;2023-02-04T03:21:47;94775.19;;;1.09;82.02
43711;BME280;29309;42.682;23.372;2023-02-04T03:24:12;94767.88;;;1.11;81.70
43711;BME280;29309;42.682;23.372;2023-02-04T03:26:38;94756.34;;;1.13;81.38
43711;BME280;29309;42.682;23.372;2023-02-04T03:29:07;94747.44;;;1.12;81.42
43711;BME280;29309;42.682;23.372;2023-02-04T03:31:33;94743.69;;;1.08;81.46
43711;BME280;29309;42.682;23.372;2023-02-04T03:33:58;94752.34;;;1.14;81.20
43711;BME280;29309;42.682;23.372;2023-02-04T03:36:24;94751.47;;;1.11;81.24
43711;BME280;29309;42.682;23.372;2023-02-04T03:38:49;94751.16;;;1.07;80.87
43711;BME280;29309;42.682;23.372;2023-02-04T03:41:16;94755.75;;;1.05;80.87
43711;BME280;29309;42.682;23.372;2023-02-04T03:43:42;94753.44;;;1.01;81.20
43711;BME280;29309;42.682;23.372;2023-02-04T03:46:07;94737.31;;;1.05;81.63
43711;BME280;29309;42.682;23.372;2023-02-04T03:48:33;94744.31;;;1.16;81.39
43711;BME280;29309;42.682;23.372;2023-02-04T03:50:58;94746.47;;;1.17;81.14
43711;BME280;29309;42.682;23.372;2023-02-04T03:53:24;94731.50;;;1.18;81.15
43711;BME280;29309;42.682;23.372;2023-02-04T03:55:49;94734.38;;;1.20;80.75
43711;BME280;29309;42.682;23.372;2023-02-04T03:58:15;94724.75;;;1.19;81.03
43711;BME280;29309;42.682;23.372;2023-02-04T04:00:41;94713.09;;;1.19;80.89
43711;BME280;29309;42.682;23.372;2023-02-04T04:03:06;94712.38;;;1.18;81.17
43711;BME280;29309;42.682;23.372;2023-02-04T04:05:31;94698.84;;;1.20;80.88
43711;BME280;29309;42.682;23.372;2023-02-04T04:07:57;94694.41;;;1.25;80.83
43711;BME280;29309;42.682;23.372;2023-02-04T04:10:23;94692.13;;;1.31;81.02
43711;BME280;29309;42.682;23.372;2023-02-04T04:12:48;94687.28;;;1.39;81.28
43711;BME280;29309;42.682;23.372;2023-02-04T04:15:14;94687.56;;;1.33;81.39
43711;BME280;29309;42.682;23.372;2023-02-04T04:17:39;94687.88;;;1.37;81.06
43711;BME280;29309;42.682;23.372;2023-02-04T04:20:05;94682.41;;;1.47;80.65
43711;BME280;29309;42.682;23.372;2023-02-04T04:22:31;94678.41;;;1.48;80.30
43711;BME280;29309;42.682;23.372;2023-02-04T04:24:56;94668.59;;;1.45;80.13
43711;BME280;29309;42.682;23.372;2023-02-04T04:27:21;94682.22;;;1.35;80.76
43711;BME280;29309;42.682;23.372;2023-02-04T04:29:47;94680.94;;;1.36;81.04
43711;BME280;29309;42.682;23.372;2023-02-04T04:32:13;94689.47;;;1.40;81.07
43711;BME280;29309;42.682;23.372;2023-02-04T04:34:38;94690.47;;;1.45;80.83
43711;BME280;29309;42.682;23.372;2023-02-04T04:37:05;94699.56;;;1.47;80.94
43711;BME280;29309;42.682;23.372;2023-02-04T04:39:30;94705.34;;;1.52;80.64
43711;BME280;29309;42.682;23.372;2023-02-04T04:41:55;94695.97;;;1.55;81.00
43711;BME280;29309;42.682;23.372;2023-02-04T04:44:21;94704.50;;;1.59;81.09
43711;BME280;29309;42.682;23.372;2023-02-04T04:46:46;94704.78;;;1.63;80.71
43711;BME280;29309;42.682;23.372;2023-02-04T04:49:12;94703.47;;;1.64;80.90
43711;BME280;29309;42.682;23.372;2023-02-04T04:51:37;94718.63;;;1.65;80.64
43711;BME280;29309;42.682;23.372;2023-02-04T04:54:03;94709.13;;;1.66;80.60
43711;BME280;29309;42.682;23.372;2023-02-04T04:56:28;94714.91;;;1.70;80.56
43711;BME280;29309;42.682;23.372;2023-02-04T04:58:54;94709.69;;;1.74;80.55
43711;BME280;29309;42.682;23.372;2023-02-04T05:01:19;94711.00;;;1.73;80.76
43711;BME280;29309;42.682;23.372;2023-02-04T05:03:46;94712.00;;;1.77;81.11
43711;BME280;29309;42.682;23.372;2023-02-04T05:06:12;94707.72;;;1.84;81.37
43711;BME280;29309;42.682;23.372;2023-02-04T05:08:38;94713.22;;;1.84;81.66
43711;BME280;29309;42.682;23.372;2023-02-04T05:11:03;94702.41;;;1.86;81.65
43711;BME280;29309;42.682;23.372;2023-02-04T05:13:29;94714.78;;;1.87;82.29
43711;BME280;29309;42.682;23.372;2023-02-04T05:15:54;94732.66;;;1.88;82.28
43711;BME280;29309;42.682;23.372;2023-02-04T05:18:20;94720.41;;;1.89;82.96
43711;BME280;29309;42.682;23.372;2023-02-04T05:20:45;94734.25;;;1.91;83.54
43711;BME280;29309;42.682;23.372;2023-02-04T05:23:11;94743.63;;;1.88;83.93
43711;BME280;29309;42.682;23.372;2023-02-04T05:25:36;94734.69;;;1.87;84.55
43711;BME280;29309;42.682;23.372;2023-02-04T05:28:02;94744.72;;;1.85;85.02
43711;BME280;29309;42.682;23.372;2023-02-04T05:30:28;94746.19;;;1.86;84.85
43711;BME280;29309;42.682;23.372;2023-02-04T05:32:54;94749.34;;;1.82;85.16
43711;BME280;29309;42.682;23.372;2023-02-04T05:35:19;94745.50;;;1.95;85.13
43711;BME280;29309;42.682;23.372;2023-02-04T05:37:45;94749.59;;;2.13;84.11
43711;BME280;29309;42.682;23.372;2023-02-04T05:40:12;94753.34;;;2.27;82.39
43711;BME280;29309;42.682;23.372;2023-02-04T05:42:37;94755.81;;;2.42;81.34
43711;BME280;29309;42.682;23.372;2023-02-04T05:45:03;94751.94;;;2.45;81.26
43711;BME280;29309;42.682;23.372;2023-02-04T05:47:28;94757.28;;;2.53;80.42
43711;BME280;29309;42.682;23.372;2023-02-04T05:49:54;94756.69;;;2.55;79.58
43711;BME280;29309;42.682;23.372;2023-02-04T05:52:19;94753.25;;;2.64;78.32
43711;BME280;29309;42.682;23.372;2023-02-04T05:54:45;94745.88;;;2.66;78.51
43711;BME280;29309;42.682;23.372;2023-02-04T05:57:11;94741.69;;;2.65;78.38
43711;BME280;29309;42.682;23.372;2023-02-04T05:59:36;94723.66;;;2.72;77.46
43711;BME280;29309;42.682;23.372;2023-02-04T06:02:01;94738.97;;;2.75;76.44
43711;BME280;29309;42.682;23.372;2023-02-04T06:04:27;94749.94;;;2.75;75.96
43711;BME280;29309;42.682;23.372;2023-02-04T06:06:52;94749.94;;;2.75;75.97
43711;BME280;29309;42.682;23.372;2023-02-04T06:09:18;94741.09;;;2.76;75.11
43711;BME280;29309;42.682;23.372;2023-02-04T06:11:43;94751.19;;;2.83;74.81
43711;BME280;29309;42.682;23.372;2023-02-04T06:14:09;94745.28;;;2.87;74.68
43711;BME280;29309;42.682;23.372;2023-02-04T06:16:35;94750.78;;;2.87;74.38
43711;BME280;29309;42.682;23.372;2023-02-04T06:19:01;94748.88;;;2.89;74.33
43711;BME280;29309;42.682;23.372;2023-02-04T06:21:27;94746.28;;;2.91;74.89
43711;BME280;29309;42.682;23.372;2023-02-04T06:23:52;94748.59;;;2.95;75.00
43711;BME280;29309;42.682;23.372;2023-02-04T06:26:17;94747.16;;;3.04;74.30
43711;BME280;29309;42.682;23.372;2023-02-04T06:28:43;94745.28;;;3.06;73.38
43711;BME280;29309;42.682;23.372;2023-02-04T06:31:08;94743.25;;;3.07;73.08
43711;BME280;29309;42.682;23.372;2023-02-04T06:33:35;94749.59;;;3.09;72.77
43711;BME280;29309;42.682;23.372;2023-02-04T06:36:02;94750.59;;;3.14;71.76
43711;BME280;29309;42.682;23.372;2023-02-04T06:38:28;94766.34;;;3.13;72.53
43711;BME280;29309;42.682;23.372;2023-02-04T06:40:54;94748.72;;;3.16;71.94
43711;BME280;29309;42.682;23.372;2023-02-04T06:43:20;94759.41;;;3.22;72.24
43711;BME280;29309;42.682;23.372;2023-02-04T06:45:46;94758.22;;;3.25;71.81
43711;BME280;29309;42.682;23.372;2023-02-04T06:48:11;94742.91;;;3.31;73.53
43711;BME280;29309;42.682;23.372;2023-02-04T06:50:36;94748.97;;;3.39;74.13
43711;BME280;29309;42.682;23.372;2023-02-04T06:53:02;94749.09;;;3.41;71.08
43711;BME280;29309;42.682;23.372;2023-02-04T06:55:29;94744.44;;;3.44;70.35
43711;BME280;29309;42.682;23.372;2023-02-04T06:57:54;94748.78;;;3.47;69.96
43711;BME280;29309;42.682;23.372;2023-02-04T07:00:20;94735.94;;;3.50;68.94
43711;BME280;29309;42.682;23.372;2023-02-04T07:02:45;94732.59;;;3.51;69.14
43711;BME280;29309;42.682;23.372;2023-02-04T07:05:11;94738.78;;;3.52;68.53
43711;BME280;29309;42.682;23.372;2023-02-04T07:07:36;94736.78;;;3.52;68.61
43711;BME280;29309;42.682;23.372;2023-02-04T07:10:02;94733.13;;;3.59;68.27
43711;BME280;29309;42.682;23.372;2023-02-04T07:12:28;94728.13;;;3.86;67.77
43711;BME280;29309;42.682;23.372;2023-02-04T07:14:53;94736.47;;;4.19;66.22
43711;BME280;29309;42.682;23.372;2023-02-04T07:17:18;94722.59;;;4.60;64.41
43711;BME280;29309;42.682;23.372;2023-02-04T07:19:44;94732.66;;;4.88;64.15
43711;BME280;29309;42.682;23.372;2023-02-04T07:22:09;94728.47;;;5.31;62.90
43711;BME280;29309;42.682;23.372;2023-02-04T07:24:35;94728.41;;;5.53;60.32
43711;BME280;29309;42.682;23.372;2023-02-04T07:27:00;94718.59;;;5.50;60.40
43711;BME280;29309;42.682;23.372;2023-02-04T07:29:26;94726.44;;;5.43;59.89
43711;BME280;29309;42.682;23.372;2023-02-04T07:31:51;94725.72;;;5.31;60.61
43711;BME280;29309;42.682;23.372;2023-02-04T07:34:17;94716.63;;;5.40;60.50
43711;BME280;29309;42.682;23.372;2023-02-04T07:36:43;94720.59;;;5.49;60.40
43711;BME280;29309;42.682;23.372;2023-02-04T07:39:08;94726.25;;;5.74;60.26
43711;BME280;29309;42.682;23.372;2023-02-04T07:41:34;94729.03;;;5.98;58.10
43711;BME280;29309;42.682;23.372;2023-02-04T07:44:00;94728.41;;;6.22;58.14
43711;BME280;29309;42.682;23.372;2023-02-04T07:46:27;94728.97;;;6.44;58.00
43711;BME280;29309;42.682;23.372;2023-02-04T07:48:52;94738.06;;;6.58;56.93
43711;BME280;29309;42.682;23.372;2023-02-04T07:51:18;94723.63;;;6.71;55.84
43711;BME280;29309;42.682;23.372;2023-02-04T07:53:43;94725.75;;;6.84;55.74
43711;BME280;29309;42.682;23.372;2023-02-04T07:56:09;94716.44;;;7.03;55.51
43711;BME280;29309;42.682;23.372;2023-02-04T07:58:35;94724.63;;;7.26;55.26
43711;BME280;29309;42.682;23.372;2023-02-04T08:01:00;94720.16;;;7.47;54.00
43711;BME280;29309;42.682;23.372;2023-02-04T08:03:26;94723.06;;;7.62;53.62
43711;BME280;29309;42.682;23.372;2023-02-04T08:05:52;94715.81;;;7.69;52.44
43711;BME280;29309;42.682;23.372;2023-02-04T08:08:17;94717.47;;;7.74;52.70
43711;BME280;29309;42.682;23.372;2023-02-04T08:10:43;94723.69;;;7.74;52.93
43711;BME280;29309;42.682;23.372;2023-02-04T08:13:09;94718.34;;;7.51;52.11
43711;BME280;29309;42.682;23.372;2023-02-04T08:15:34;94735.88;;;7.30;52.89
43711;BME280;29309;42.682;23.372;2023-02-04T08:18:00;94726.03;;;7.27;54.07
43711;BME280;29309;42.682;23.372;2023-02-04T08:20:28;94726.59;;;6.87;54.64
43711;BME280;29309;42.682;23.372;2023-02-04T08:22:54;94727.34;;;6.76;55.47
43711;BME280;29309;42.682;23.372;2023-02-04T08:25:20;94727.63;;;6.68;55.96
43711;BME280;29309;42.682;23.372;2023-02-04T08:27:45;94731.13;;;6.46;56.51
43711;BME280;29309;42.682;23.372;2023-02-04T08:30:11;94721.94;;;6.29;57.09
43711;BME280;29309;42.682;23.372;2023-02-04T08:32:37;94726.16;;;6.07;58.13
43711;BME280;29309;42.682;23.372;2023-02-04T08:35:04;94724.59;;;6.04;58.51
43711;BME280;29309;42.682;23.372;2023-02-04T08:37:29;94714.53;;;5.97;59.36
43711;BME280;29309;42.682;23.372;2023-02-04T08:39:55;94713.34;;;6.00;60.13
43711;BME280;29309;42.682;23.372;2023-02-04T08:42:20;94714.19;;;6.03;60.42
43711;BME280;29309;42.682;23.372;2023-02-04T08:44:46;94708.69;;;6.03;60.62
43711;BME280;29309;42.682;23.372;2023-02-04T08:47:11;94704.72;;;5.94;59.79
43711;BME280;29309;42.682;23.372;2023-02-04T08:49:39;94712.53;;;5.86;60.36
43711;BME280;29309;42.682;23.372;2023-02-04T08:52:05;94717.38;;;5.76;60.38
43711;BME280;29309;42.682;23.372;2023-02-04T08:54:32;94716.66;;;5.75;60.90
43711;BME280;29309;42.682;23.372;2023-02-04T08:56:58;94716.94;;;5.68;61.28
43711;BME280;29309;42.682;23.372;2023-02-04T08:59:23;94711.03;;;5.62;62.18
43711;BME280;29309;42.682;23.372;2023-02-04T09:01:50;94711.50;;;5.46;62.29
43711;BME280;29309;42.682;23.372;2023-02-04T09:04:21;94709.44;;;5.35;62.90
43711;BME280;29309;42.682;23.372;2023-02-04T09:06:47;94721.63;;;5.21;63.55
43711;BME280;29309;42.682;23.372;2023-02-04T09:09:13;94711.22;;;5.19;64.22
43711;BME280;29309;42.682;23.372;2023-02-04T09:11:39;94715.19;;;5.28;64.09
43711;BME280;29309;42.682;23.372;2023-02-04T09:14:05;94706.75;;;5.14;64.78
43711;BME280;29309;42.682;23.372;2023-02-04T09:16:31;94708.56;;;5.21;65.20
43711;BME280;29309;42.682;23.372;2023-02-04T09:18:57;94702.75;;;5.27;64.65
43711;BME280;29309;42.682;23.372;2023-02-04T09:21:24;94701.91;;;5.24;63.92
43711;BME280;29309;42.682;23.372;2023-02-04T09:23:49;94700.78;;;5.18;63.78
43711;BME280;29309;42.682;23.372;2023-02-04T09:26:15;94692.22;;;5.23;64.36
43711;BME280;29309;42.682;23.372;2023-02-04T09:28:41;94691.00;;;5.26;64.31
43711;BME280;29309;42.682;23.372;2023-02-04T09:31:06;94697.00;;;5.34;63.44
43711;BME280;29309;42.682;23.372;2023-02-04T09:33:32;94694.63;;;5.40;63.13
43711;BME280;29309;42.682;23.372;2023-02-04T09:35:58;94696.91;;;5.44;62.56
43711;BME280;29309;42.682;23.372;2023-02-04T09:38:24;94686.94;;;5.39;62.20
43711;BME280;29309;42.682;23.372;2023-02-04T09:40:53;94690.19;;;5.24;63.37
43711;BME280;29309;42.682;23.372;2023-02-04T09:43:28;94685.84;;;5.09;65.31
43711;BME280;29309;42.682;23.372;2023-02-04T09:45:55;94700.06;;;5.06;66.55
43711;BME280;29309;42.682;23.372;2023-02-04T09:48:21;94692.25;;;4.90;68.63
43711;BME280;29309;42.682;23.372;2023-02-04T09:50:49;94687.16;;;4.75;70.25
43711;BME280;29309;42.682;23.372;2023-02-04T09:53:18;94683.84;;;4.77;71.48
43711;BME280;29309;42.682;23.372;2023-02-04T09:55:46;94683.47;;;4.82;71.67
43711;BME280;29309;42.682;23.372;2023-02-04T09:58:14;94676.22;;;4.87;72.05
43711;BME280;29309;42.682;23.372;2023-02-04T10:00:42;94684.56;;;4.77;72.20
43711;BME280;29309;42.682;23.372;2023-02-04T10:03:18;94678.59;;;4.81;72.33
43711;BME280;29309;42.682;23.372;2023-02-04T10:05:48;94673.94;;;4.83;72.95
43711;BME280;29309;42.682;23.372;2023-02-04T10:08:27;94668.63;;;4.76;73.24
43711;BME280;29309;42.682;23.372;2023-02-04T10:10:54;94668.53;;;4.74;72.72
43711;BME280;29309;42.682;23.372;2023-02-04T10:13:23;94661.31;;;4.69;73.41
43711;BME280;29309;42.682;23.372;2023-02-04T10:15:52;94664.31;;;4.73;73.59
43711;BME280;29309;42.682;23.372;2023-02-04T10:18:44;94659.03;;;4.65;72.35
43711;BME280;29309;42.682;23.372;2023-02-04T10:21:22;94653.63;;;4.56;72.43
43711;BME280;29309;42.682;23.372;2023-02-04T10:23:54;94646.47;;;4.62;72.42
43711;BME280;29309;42.682;23.372;2023-02-04T10:26:21;94644.94;;;4.71;72.73
43711;BME280;29309;42.682;23.372;2023-02-04T10:28:46;94645.19;;;4.75;72.85
43711;BME280;29309;42.682;23.372;2023-02-04T10:36:47;94641.19;;;4.87;72.29
43711;BME280;29309;42.682;23.372;2023-02-04T10:39:21;94634.00;;;4.94;72.05
43711;BME280;29309;42.682;23.372;2023-02-04T10:41:52;94627.69;;;4.91;70.62
43711;BME280;29309;42.682;23.372;2023-02-04T10:44:24;94644.75;;;4.90;72.33
43711;BME280;29309;42.682;23.372;2023-02-04T10:46:57;94628.59;;;4.73;73.31
43711;BME280;29309;42.682;23.372;2023-02-04T10:49:23;94635.97;;;4.70;74.57
43711;BME280;29309;42.682;23.372;2023-02-04T10:51:50;94627.81;;;4.61;75.20
43711;BME280;29309;42.682;23.372;2023-02-04T10:54:19;94623.16;;;4.63;75.93
43711;BME280;29309;42.682;23.372;2023-02-04T10:57:20;94626.16;;;4.67;76.24
43711;BME280;29309;42.682;23.372;2023-02-04T10:59:52;94619.31;;;4.57;76.29
43711;BME280;29309;42.682;23.372;2023-02-04T11:04:47;94616.09;;;4.60;76.70
43711;BME280;29309;42.682;23.372;2023-02-04T11:07:12;94611.69;;;4.55;76.56
43711;BME280;29309;42.682;23.372;2023-02-04T11:09:42;94611.59;;;4.65;76.76
43711;BME280;29309;42.682;23.372;2023-02-04T11:12:36;94615.09;;;4.77;77.10
43711;BME280;29309;42.682;23.372;2023-02-04T11:15:03;94620.00;;;4.90;76.97
43711;BME280;29309;42.682;23.372;2023-02-04T11:17:34;94596.59;;;5.01;75.98
43711;BME280;29309;42.682;23.372;2023-02-04T11:19:59;94609.50;;;4.98;74.77
43711;BME280;29309;42.682;23.372;2023-02-04T11:22:45;94603.16;;;5.07;74.74
43711;BME280;29309;42.682;23.372;2023-02-04T11:25:35;94605.91;;;5.07;73.72
43711;BME280;29309;42.682;23.372;2023-02-04T11:28:23;94602.22;;;5.14;73.50
43711;BME280;29309;42.682;23.372;2023-02-04T11:31:00;94603.69;;;5.27;73.69
43711;BME280;29309;42.682;23.372;2023-02-04T11:33:37;94603.53;;;5.25;73.52
43711;BME280;29309;42.682;23.372;2023-02-04T11:36:05;94608.94;;;5.23;72.75
43711;BME280;29309;42.682;23.372;2023-02-04T11:38:31;94615.75;;;5.22;72.84
43711;BME280;29309;42.682;23.372;2023-02-04T11:40:58;94610.13;;;5.20;73.24
43711;BME280;29309;42.682;23.372;2023-02-04T11:43:25;94612.88;;;5.20;73.78
43711;BME280;29309;42.682;23.372;2023-02-04T11:46:03;94608.22;;;5.22;74.22
43711;BME280;29309;42.682;23.372;2023-02-04T11:48:30;94618.50;;;5.22;74.45
43711;BME280;29309;42.682;23.372;2023-02-04T11:50:57;94618.13;;;5.04;74.43
43711;BME280;29309;42.682;23.372;2023-02-04T11:53:28;94615.72;;;4.99;74.77
43711;BME280;29309;42.682;23.372;2023-02-04T11:55:54;94617.41;;;5.04;75.07
43711;BME280;29309;42.682;23.372;2023-02-04T11:58:20;94610.38;;;5.12;75.64
43711;BME280;29309;42.682;23.372;2023-02-04T12:00:46;94612.97;;;5.10;75.11
43711;BME280;29309;42.682;23.372;2023-02-04T12:03:28;94607.59;;;5.01;75.00
43711;BME280;29309;42.682;23.372;2023-02-04T12:05:55;94605.94;;;4.95;75.37
43711;BME280;29309;42.682;23.372;2023-02-04T12:10:49;94601.38;;;5.00;75.33
43711;BME280;29309;42.682;23.372;2023-02-04T12:13:22;94606.75;;;4.98;75.38
43711;BME280;29309;42.682;23.372;2023-02-04T12:16:00;94607.81;;;4.93;75.81
43711;BME280;29309;42.682;23.372;2023-02-04T12:18:27;94596.72;;;4.91;76.06
43711;BME280;29309;42.682;23.372;2023-02-04T12:20:54;94589.88;;;4.92;76.64
43711;BME280;29309;42.682;23.372;2023-02-04T12:23:20;94599.69;;;4.83;76.68
43711;BME280;29309;42.682;23.372;2023-02-04T12:25:45;94598.34;;;4.73;76.48
43711;BME280;29309;42.682;23.372;2023-02-04T12:28:11;94589.22;;;4.70;77.78
43711;BME280;29309;42.682;23.372;2023-02-04T12:30:36;94582.66;;;4.64;78.71
43711;BME280;29309;42.682;23.372;2023-02-04T12:33:02;94586.59;;;4.61;79.12
43711;BME280;29309;42.682;23.372;2023-02-04T12:35:27;94590.53;;;4.58;79.13
43711;BME280;29309;42.682;23.372;2023-02-04T12:37:53;94590.88;;;4.52;79.63
43711;BME280;29309;42.682;23.372;2023-02-04T12:40:20;94584.19;;;4.55;79.94
43711;BME280;29309;42.682;23.372;2023-02-04T12:42:45;94583.84;;;4.61;80.22
43711;BME280;29309;42.682;23.372;2023-02-04T12:45:13;94581.09;;;4.61;79.18
43711;BME280;29309;42.682;23.372;2023-02-04T12:47:40;94581.09;;;4.61;79.60
43711;BME280;29309;42.682;23.372;2023-02-04T12:50:07;94585.13;;;4.48;78.59
43711;BME280;29309;42.682;23.372;2023-02-04T12:52:33;94585.25;;;4.50;78.80
43711;BME280;29309;42.682;23.372;2023-02-04T12:54:58;94574.25;;;4.50;78.99
43711;BME280;29309;42.682;23.372;2023-02-04T12:57:25;94583.34;;;4.53;78.20
43711;BME280;29309;42.682;23.372;2023-02-04T12:59:51;94578.22;;;4.59;77.78
43711;BME280;29309;42.682;23.372;2023-02-04T13:02:16;94585.16;;;4.60;77.04
43711;BME280;29309;42.682;23.372;2023-02-04T13:04:42;94577.88;;;4.64;76.39
43711;BME280;29309;42.682;23.372;2023-02-04T13:07:08;94586.84;;;4.65;76.36
43711;BME280;29309;42.682;23.372;2023-02-04T13:09:34;94579.06;;;4.61;75.71
43711;BME280;29309;42.682;23.372;2023-02-04T13:12:00;94580.38;;;4.60;75.53